Time;durP1;ratioP1;P1;durP2;ratioP2;P2;SDS_P1;SDS_P2;PMS_P1;PMS_P2;Temp;Humidity;BMP_temperature;BMP_pressure;BME280_temperature;BME280_humidity;BME280_pressure;Samples;Min_cycle;Max_cycle;Signal;HPM_P1;HPM_P2
2022/12/29 00:01:18;;;;;;;5.03;3.40;;;;;;;;;;5027057;28;20055;-81
2022/12/29 00:03:47;;;;;;;7.47;4.75;;;;;;;;;;5030288;28;20063;-81
2022/12/29 00:06:13;;;;;;;5.30;4.28;;;;;;;;;;5026160;28;20484;-81
2022/12/29 00:08:39;;;;;;;7.82;3.83;;;;;;;;;;5024151;28;20095;-80
2022/12/29 00:11:13;;;;;;;7.00;4.00;;;;;;;;;;5021763;28;20499;-80
2022/12/29 00:16:24;;;;;;;4.93;3.70;;;;;;;;;;5012876;28;20072;-80
2022/12/29 00:18:50;;;;;;;6.18;3.92;;;;;;;;;;5014938;28;20060;-81
2022/12/29 00:35:10;;;;;;;5.85;3.90;;;;;;;;;;5022265;28;20052;-80
2022/12/29 00:45:55;;;;;;;5.53;3.40;;;;;;;;;;5028112;28;20095;-80
2022/12/29 00:51:06;;;;;;;4.53;3.05;;;;;;;;;;5024376;28;20066;-80
2022/12/29 00:53:32;;;;;;;4.88;3.28;;;;;;;;;;5032290;28;20102;-81
2022/12/29 00:55:58;;;;;;;4.25;3.10;;;;;;;;;;5011821;28;20064;-81
2022/12/29 00:58:24;;;;;;;5.43;3.38;;;;;;;;;;5021502;28;20680;-81
2022/12/29 01:00:50;;;;;;;5.22;3.75;;;;;;;;;;5024212;28;20091;-80
2022/12/29 01:03:16;;;;;;;4.82;3.58;;;;;;;;;;5019851;28;20033;-81
2022/12/29 01:05:42;;;;;;;4.10;2.95;;;;;;;;;;5024561;28;20029;-81
2022/12/29 01:08:08;;;;;;;5.35;3.50;;;;;;;;;;5023992;28;20029;-81
2022/12/29 01:10:34;;;;;;;4.47;3.30;;;;;;;;;;5030226;28;20084;-79
2022/12/29 01:13:00;;;;;;;3.90;3.03;;;;;;;;;;5028944;28;20079;-79
2022/12/29 01:15:29;;;;;;;4.38;3.17;;;;;;;;;;5020100;28;20044;-80
2022/12/29 01:17:55;;;;;;;4.88;3.22;;;;;;;;;;5023338;28;20025;-81
2022/12/29 01:20:21;;;;;;;3.88;2.88;;;;;;;;;;5023078;28;20033;-81
2022/12/29 01:22:47;;;;;;;4.35;3.10;;;;;;;;;;5023332;28;20040;-81
2022/12/29 01:25:13;;;;;;;4.40;2.72;;;;;;;;;;5022703;28;20021;-80
2022/12/29 01:27:39;;;;;;;5.50;2.90;;;;;;;;;;5024350;28;20385;-80
2022/12/29 01:30:05;;;;;;;3.88;2.80;;;;;;;;;;5026182;28;20076;-80
2022/12/29 01:32:31;;;;;;;4.15;2.80;;;;;;;;;;5023906;28;20516;-80
2022/12/29 01:34:57;;;;;;;4.35;2.95;;;;;;;;;;5027387;28;20030;-80
2022/12/29 01:37:23;;;;;;;4.00;3.08;;;;;;;;;;5022678;28;20034;-80
2022/12/29 01:39:49;;;;;;;5.22;2.60;;;;;;;;;;5018444;28;20034;-80
2022/12/29 01:42:18;;;;;;;4.55;3.08;;;;;;;;;;5020149;28;20036;-81
2022/12/29 01:44:50;;;;;;;3.72;2.72;;;;;;;;;;5026787;28;20036;-80
2022/12/29 01:47:21;;;;;;;2.97;2.45;;;;;;;;;;5031577;28;20025;-80
2022/12/29 01:49:47;;;;;;;4.68;2.65;;;;;;;;;;5022990;28;20025;-82
2022/12/29 01:52:13;;;;;;;4.75;3.05;;;;;;;;;;5027791;28;20811;-81
2022/12/29 01:54:41;;;;;;;3.20;2.33;;;;;;;;;;5029262;28;20026;-81
2022/12/29 01:57:12;;;;;;;5.18;2.70;;;;;;;;;;5025023;28;20035;-82
2022/12/29 01:59:43;;;;;;;4.32;2.72;;;;;;;;;;5027885;28;20122;-81
2022/12/29 02:02:09;;;;;;;3.22;2.30;;;;;;;;;;5023905;28;20030;-81
2022/12/29 02:04:38;;;;;;;3.63;2.40;;;;;;;;;;5024837;28;20546;-80
2022/12/29 02:07:05;;;;;;;2.50;2.15;;;;;;;;;;5027306;28;20032;-80
2022/12/29 02:09:31;;;;;;;3.28;2.38;;;;;;;;;;5024544;28;20041;-81
2022/12/29 02:11:58;;;;;;;2.95;2.33;;;;;;;;;;5025995;28;20025;-81
2022/12/29 02:14:24;;;;;;;3.60;2.40;;;;;;;;;;5028826;28;20510;-81
2022/12/29 02:16:59;;;;;;;3.75;2.60;;;;;;;;;;5034041;28;20051;-81
2022/12/29 02:19:44;;;;;;;2.25;2.05;;;;;;;;;;5029157;28;20033;-81
2022/12/29 02:22:16;;;;;;;2.58;1.90;;;;;;;;;;5026033;28;20404;-81
2022/12/29 02:25:04;;;;;;;2.50;2.30;;;;;;;;;;5024416;28;20546;-81
2022/12/29 02:27:49;;;;;;;2.88;2.15;;;;;;;;;;5027724;28;20380;-80
2022/12/29 02:30:34;;;;;;;2.92;2.13;;;;;;;;;;5027123;28;20045;-81
2022/12/29 02:33:18;;;;;;;4.13;2.30;;;;;;;;;;5024082;28;20740;-81
2022/12/29 02:36:04;;;;;;;2.92;2.10;;;;;;;;;;5017839;28;20465;-81
2022/12/29 02:38:33;;;;;;;3.70;2.40;;;;;;;;;;5025999;28;20047;-81
2022/12/29 02:41:08;;;;;;;3.35;2.00;;;;;;;;;;5024714;28;20033;-80
2022/12/29 02:43:53;;;;;;;4.38;2.35;;;;;;;;;;5028670;28;20029;-81
2022/12/29 02:46:40;;;;;;;3.42;2.25;;;;;;;;;;5029369;28;20105;-81
2022/12/29 02:49:09;;;;;;;2.70;2.10;;;;;;;;;;5029290;28;20850;-81
2022/12/29 02:51:41;;;;;;;2.70;2.00;;;;;;;;;;5028943;28;20034;-81
2022/12/29 02:56:53;;;;;;;3.45;2.03;;;;;;;;;;5028444;28;20076;-83
2022/12/29 02:59:19;;;;;;;2.20;1.80;;;;;;;;;;5031254;28;20056;-80
2022/12/29 03:02:20;;;;;;;3.55;2.20;;;;;;;;;;5027800;28;20021;-80
2022/12/29 03:04:54;;;;;;;2.25;1.83;;;;;;;;;;5028745;28;20029;-80
2022/12/29 03:07:49;;;;;;;3.47;2.38;;;;;;;;;;5027425;28;20037;-80
2022/12/29 03:10:29;;;;;;;2.92;2.03;;;;;;;;;;5025990;28;20034;-80
2022/12/29 03:16:05;;;;;;;3.78;2.13;;;;;;;;;;5019726;28;20212;-80
2022/12/29 03:18:46;;;;;;;2.30;1.88;;;;;;;;;;5029149;28;20029;-80
2022/12/29 03:24:21;;;;;;;2.10;1.60;;;;;;;;;;5025266;28;20033;-80
2022/12/29 03:26:48;;;;;;;3.40;1.85;;;;;;;;;;5028419;28;20084;-81
2022/12/29 03:29:14;;;;;;;3.92;1.77;;;;;;;;;;5028166;28;20381;-80
2022/12/29 03:31:41;;;;;;;2.63;1.83;;;;;;;;;;5028444;28;20086;-80
2022/12/29 03:34:07;;;;;;;3.22;1.92;;;;;;;;;;5026041;28;20061;-80
2022/12/29 03:36:38;;;;;;;3.85;1.65;;;;;;;;;;5029489;28;20041;-80
2022/12/29 03:39:09;;;;;;;2.45;1.70;;;;;;;;;;5029995;28;20038;-79
2022/12/29 03:41:35;;;;;;;2.75;1.90;;;;;;;;;;5028379;28;20091;-80
2022/12/29 03:44:01;;;;;;;2.88;1.73;;;;;;;;;;5027667;28;20476;-80
2022/12/29 03:46:27;;;;;;;2.40;1.67;;;;;;;;;;5027152;28;20040;-80
2022/12/29 03:48:53;;;;;;;2.47;1.60;;;;;;;;;;5029427;28;20542;-81
2022/12/29 03:51:19;;;;;;;2.03;1.42;;;;;;;;;;5028878;28;20079;-81
2022/12/29 03:53:45;;;;;;;2.30;1.63;;;;;;;;;;5028260;28;20042;-81
2022/12/29 03:56:10;;;;;;;2.40;1.65;;;;;;;;;;5028149;28;20029;-80
2022/12/29 03:58:36;;;;;;;1.90;1.60;;;;;;;;;;5025967;28;20033;-80
2022/12/29 04:01:02;;;;;;;2.47;1.50;;;;;;;;;;5027241;28;20037;-80
2022/12/29 04:03:28;;;;;;;1.85;1.42;;;;;;;;;;5028168;28;20025;-80
2022/12/29 04:05:57;;;;;;;2.50;1.52;;;;;;;;;;5026339;28;20071;-81
2022/12/29 04:08:23;;;;;;;3.08;1.70;;;;;;;;;;5028092;28;20052;-81
2022/12/29 04:10:49;;;;;;;1.52;1.42;;;;;;;;;;5027998;28;20029;-80
2022/12/29 04:13:15;;;;;;;1.38;1.27;;;;;;;;;;5038864;28;20040;-80
2022/12/29 04:15:42;;;;;;;1.30;1.20;;;;;;;;;;5024965;28;20025;-80
2022/12/29 04:18:08;;;;;;;1.42;1.20;;;;;;;;;;5028135;28;20484;-80
2022/12/29 04:23:19;;;;;;;1.55;1.40;;;;;;;;;;5027438;28;20095;-80
2022/12/29 04:25:50;;;;;;;1.50;1.40;;;;;;;;;;5026043;28;20029;-80
2022/12/29 04:28:17;;;;;;;1.58;1.30;;;;;;;;;;5027521;28;20033;-80
2022/12/29 04:30:43;;;;;;;2.10;1.60;;;;;;;;;;5028612;28;20111;-80
2022/12/29 04:33:09;;;;;;;2.15;1.50;;;;;;;;;;5027486;28;20057;-80
2022/12/29 04:35:35;;;;;;;1.63;1.45;;;;;;;;;;5026680;28;20057;-80
2022/12/29 04:38:02;;;;;;;2.25;1.38;;;;;;;;;;5031586;28;20080;-80
2022/12/29 04:40:28;;;;;;;2.28;1.20;;;;;;;;;;5027677;28;20120;-80
2022/12/29 04:42:53;;;;;;;3.08;1.65;;;;;;;;;;5026698;28;20128;-80
2022/12/29 04:45:19;;;;;;;1.40;1.30;;;;;;;;;;5026237;28;20032;-80
2022/12/29 04:47:45;;;;;;;1.40;1.20;;;;;;;;;;5031451;28;20028;-80
2022/12/29 04:50:11;;;;;;;1.52;1.42;;;;;;;;;;5026599;28;20030;-81
2022/12/29 04:52:38;;;;;;;2.08;1.65;;;;;;;;;;5026407;28;20506;-80
2022/12/29 04:55:04;;;;;;;1.45;1.35;;;;;;;;;;5027967;28;20038;-81
2022/12/29 04:57:33;;;;;;;1.35;1.10;;;;;;;;;;5027071;28;20605;-80
2022/12/29 04:59:59;;;;;;;1.63;1.15;;;;;;;;;;5024189;28;20510;-81
2022/12/29 05:02:25;;;;;;;1.20;1.05;;;;;;;;;;5026524;28;20466;-80
2022/12/29 05:04:51;;;;;;;1.35;1.10;;;;;;;;;;5026050;28;20032;-80
2022/12/29 05:07:17;;;;;;;2.47;1.25;;;;;;;;;;5026061;28;20021;-80
2022/12/29 05:09:43;;;;;;;1.63;1.30;;;;;;;;;;5031674;28;20029;-80
2022/12/29 05:12:09;;;;;;;1.75;1.20;;;;;;;;;;5022032;28;20045;-81
2022/12/29 05:14:35;;;;;;;1.40;1.10;;;;;;;;;;5027668;28;20460;-81
2022/12/29 05:17:01;;;;;;;1.67;0.98;;;;;;;;;;5026749;28;20128;-81
2022/12/29 05:19:27;;;;;;;1.77;1.10;;;;;;;;;;5023433;28;20040;-81
2022/12/29 05:21:54;;;;;;;1.13;0.98;;;;;;;;;;5027412;28;20103;-80
2022/12/29 05:24:20;;;;;;;2.97;0.90;;;;;;;;;;5025874;28;20060;-81
2022/12/29 05:26:46;;;;;;;2.78;1.20;;;;;;;;;;5025032;28;20036;-80
2022/12/29 05:29:12;;;;;;;1.42;1.13;;;;;;;;;;5025093;28;20025;-81
2022/12/29 05:31:38;;;;;;;1.52;1.05;;;;;;;;;;5026626;28;20098;-81
2022/12/29 05:34:04;;;;;;;1.33;1.10;;;;;;;;;;5027174;28;20095;-80
2022/12/29 05:36:30;;;;;;;1.10;1.00;;;;;;;;;;5027285;28;20037;-80
2022/12/29 05:38:56;;;;;;;5.25;1.20;;;;;;;;;;5026539;28;20117;-81
2022/12/29 05:41:22;;;;;;;2.10;1.20;;;;;;;;;;5025385;28;20029;-81
2022/12/29 05:43:48;;;;;;;2.38;0.70;;;;;;;;;;5026589;28;20120;-80
2022/12/29 05:46:14;;;;;;;1.27;1.17;;;;;;;;;;5025857;28;20022;-80
2022/12/29 05:48:40;;;;;;;1.27;0.90;;;;;;;;;;5032182;28;20127;-81
2022/12/29 05:51:06;;;;;;;3.60;0.90;;;;;;;;;;5026773;28;20507;-81
2022/12/29 05:53:32;;;;;;;1.00;1.00;;;;;;;;;;5026288;28;20551;-80
2022/12/29 05:55:58;;;;;;;1.55;1.20;;;;;;;;;;5026010;28;20040;-80
2022/12/29 05:58:24;;;;;;;1.25;1.10;;;;;;;;;;5027133;28;20715;-80
2022/12/29 06:01:22;;;;;;;1.02;0.93;;;;;;;;;;5028123;28;20451;-80
2022/12/29 06:03:48;;;;;;;1.42;1.20;;;;;;;;;;5038485;28;20519;-81
2022/12/29 06:06:16;;;;;;;1.70;1.10;;;;;;;;;;5025543;28;20030;-81
2022/12/29 06:08:42;;;;;;;1.05;1.00;;;;;;;;;;5024695;28;20037;-79
2022/12/29 06:11:08;;;;;;;1.13;0.95;;;;;;;;;;5026828;28;20018;-80
2022/12/29 06:13:37;;;;;;;1.00;0.98;;;;;;;;;;5026613;28;20499;-80
2022/12/29 06:16:04;;;;;;;1.15;1.05;;;;;;;;;;5028492;28;20053;-81
2022/12/29 06:18:30;;;;;;;1.02;0.82;;;;;;;;;;5031857;28;20136;-80
2022/12/29 06:21:00;;;;;;;1.02;0.75;;;;;;;;;;5034460;28;20480;-80
2022/12/29 06:23:26;;;;;;;1.10;1.00;;;;;;;;;;5026852;28;20026;-80
2022/12/29 06:25:52;;;;;;;1.15;1.02;;;;;;;;;;5033959;28;20029;-81
2022/12/29 06:28:18;;;;;;;1.48;1.10;;;;;;;;;;5031135;28;20048;-80
2022/12/29 06:30:45;;;;;;;1.42;0.90;;;;;;;;;;5026385;28;20044;-79
2022/12/29 06:33:11;;;;;;;1.23;1.02;;;;;;;;;;5024990;28;20046;-80
2022/12/29 06:35:37;;;;;;;1.10;1.00;;;;;;;;;;5029736;28;20057;-74
2022/12/29 06:38:03;;;;;;;1.15;1.05;;;;;;;;;;5032445;28;20048;-74
2022/12/29 06:40:29;;;;;;;0.70;0.70;;;;;;;;;;5035927;28;20040;-74
2022/12/29 06:42:55;;;;;;;1.67;1.10;;;;;;;;;;5031095;28;20026;-73
2022/12/29 06:45:21;;;;;;;1.23;1.05;;;;;;;;;;5028222;28;20018;-73
2022/12/29 06:47:47;;;;;;;1.08;0.98;;;;;;;;;;5026134;28;20018;-76
2022/12/29 06:50:13;;;;;;;1.10;0.93;;;;;;;;;;5030767;28;20029;-78
2022/12/29 06:52:39;;;;;;;1.00;0.90;;;;;;;;;;5026021;28;20550;-80
2022/12/29 06:55:05;;;;;;;1.05;0.90;;;;;;;;;;5027748;28;20022;-80
2022/12/29 06:57:31;;;;;;;2.15;1.00;;;;;;;;;;5030912;28;20026;-80
2022/12/29 06:59:57;;;;;;;1.60;1.08;;;;;;;;;;5027703;28;20605;-79
2022/12/29 07:02:25;;;;;;;1.60;0.90;;;;;;;;;;5033783;28;20439;-78
2022/12/29 07:04:54;;;;;;;1.10;1.00;;;;;;;;;;5027742;28;20544;-79
2022/12/29 07:07:21;;;;;;;1.10;1.00;;;;;;;;;;5027574;28;20519;-79
2022/12/29 07:09:47;;;;;;;1.73;1.02;;;;;;;;;;5025517;28;20022;-79
2022/12/29 07:12:13;;;;;;;2.95;1.65;;;;;;;;;;5029802;28;20091;-79
2022/12/29 07:14:39;;;;;;;1.63;1.10;;;;;;;;;;5028950;28;20029;-79
2022/12/29 07:17:06;;;;;;;1.30;1.10;;;;;;;;;;5028823;28;20021;-80
2022/12/29 07:19:32;;;;;;;1.05;0.90;;;;;;;;;;5028874;28;20056;-79
2022/12/29 07:21:58;;;;;;;1.40;1.00;;;;;;;;;;5024895;28;20075;-80
2022/12/29 07:24:25;;;;;;;1.25;0.90;;;;;;;;;;5030594;28;20045;-82
2022/12/29 07:26:51;;;;;;;1.65;1.00;;;;;;;;;;5031006;28;20021;-84
2022/12/29 07:29:17;;;;;;;3.28;1.13;;;;;;;;;;5031072;28;20037;-80
2022/12/29 07:31:43;;;;;;;2.03;1.17;;;;;;;;;;5027252;28;20366;-81
2022/12/29 07:34:11;;;;;;;1.63;1.00;;;;;;;;;;5027302;28;20045;-81
2022/12/29 07:36:37;;;;;;;0.82;0.82;;;;;;;;;;5024339;28;20021;-80
2022/12/29 07:39:04;;;;;;;2.13;0.90;;;;;;;;;;5027860;28;20448;-77
2022/12/29 07:41:30;;;;;;;1.50;0.80;;;;;;;;;;5026552;28;20460;-79
2022/12/29 07:43:55;;;;;;;0.98;0.82;;;;;;;;;;5029644;28;20045;-77
2022/12/29 07:46:21;;;;;;;2.08;0.90;;;;;;;;;;5025002;28;20031;-75
2022/12/29 07:48:47;;;;;;;2.83;0.95;;;;;;;;;;5028277;28;20018;-77
2022/12/29 07:51:13;;;;;;;1.85;0.93;;;;;;;;;;5020151;28;20651;-82
2022/12/29 07:53:39;;;;;;;0.80;0.80;;;;;;;;;;5028371;28;20037;-84
2022/12/29 07:56:06;;;;;;;0.95;0.88;;;;;;;;;;5028024;28;20032;-81
2022/12/29 07:58:32;;;;;;;1.33;0.80;;;;;;;;;;5024783;28;20041;-83
2022/12/29 08:00:58;;;;;;;0.95;0.80;;;;;;;;;;5026370;28;20029;-81
2022/12/29 08:03:25;;;;;;;1.35;1.10;;;;;;;;;;5028269;28;20091;-81
2022/12/29 08:05:51;;;;;;;3.17;1.10;;;;;;;;;;5027856;28;20022;-80
2022/12/29 08:08:17;;;;;;;1.80;1.02;;;;;;;;;;5026055;28;20546;-82
2022/12/29 08:10:43;;;;;;;3.38;0.80;;;;;;;;;;5027836;28;20026;-80
2022/12/29 08:13:09;;;;;;;0.77;0.70;;;;;;;;;;5024313;28;20412;-82
2022/12/29 08:15:35;;;;;;;1.02;0.80;;;;;;;;;;5027635;28;20040;-81
2022/12/29 08:18:01;;;;;;;0.85;0.85;;;;;;;;;;5029222;28;20022;-79
2022/12/29 08:20:27;;;;;;;0.82;0.77;;;;;;;;;;5030499;28;20021;-81
2022/12/29 08:22:53;;;;;;;2.25;0.90;;;;;;;;;;5026517;28;20041;-82
2022/12/29 08:25:19;;;;;;;0.70;0.70;;;;;;;;;;5027034;28;20503;-79
2022/12/29 08:27:45;;;;;;;1.15;0.88;;;;;;;;;;5028551;28;20044;-79
2022/12/29 08:30:11;;;;;;;0.70;0.70;;;;;;;;;;5029416;28;20033;-79
2022/12/29 08:32:37;;;;;;;1.83;0.93;;;;;;;;;;5028355;28;20050;-80
2022/12/29 08:35:03;;;;;;;0.70;0.70;;;;;;;;;;5026135;28;20053;-81
2022/12/29 08:37:29;;;;;;;0.75;0.75;;;;;;;;;;5028198;28;20029;-79
2022/12/29 08:39:55;;;;;;;0.82;0.70;;;;;;;;;;5024458;28;20516;-80
2022/12/29 08:42:21;;;;;;;0.82;0.73;;;;;;;;;;5027452;28;20040;-82
2022/12/29 08:44:47;;;;;;;1.10;1.00;;;;;;;;;;5027118;28;20025;-82
2022/12/29 08:47:13;;;;;;;0.63;0.60;;;;;;;;;;5025738;28;20522;-82
2022/12/29 08:49:39;;;;;;;1.08;0.80;;;;;;;;;;5027826;28;20029;-81
2022/12/29 08:52:05;;;;;;;1.13;0.90;;;;;;;;;;5028544;28;20022;-79
2022/12/29 08:54:31;;;;;;;3.65;0.90;;;;;;;;;;5026230;28;20476;-79
2022/12/29 08:56:57;;;;;;;1.42;0.85;;;;;;;;;;5028482;28;20037;-78
2022/12/29 08:59:23;;;;;;;1.25;0.90;;;;;;;;;;5032360;28;20033;-79
2022/12/29 09:01:49;;;;;;;1.27;0.73;;;;;;;;;;5025392;28;20111;-78
2022/12/29 09:04:15;;;;;;;1.02;1.00;;;;;;;;;;5022227;28;20032;-78
2022/12/29 09:06:41;;;;;;;1.52;0.65;;;;;;;;;;5026052;28;20029;-78
2022/12/29 09:09:07;;;;;;;0.85;0.85;;;;;;;;;;5020214;28;20401;-79
2022/12/29 09:11:33;;;;;;;0.55;0.55;;;;;;;;;;5025970;28;20126;-80
2022/12/29 09:13:59;;;;;;;0.63;0.63;;;;;;;;;;5025271;28;20063;-78
2022/12/29 09:16:26;;;;;;;0.60;0.60;;;;;;;;;;5024639;28;20075;-79
2022/12/29 09:18:52;;;;;;;1.00;0.73;;;;;;;;;;5028292;28;20037;-78
2022/12/29 09:21:18;;;;;;;2.90;0.80;;;;;;;;;;5021139;28;20407;-77
2022/12/29 09:23:44;;;;;;;0.80;0.80;;;;;;;;;;5020988;28;20404;-79
2022/12/29 09:26:10;;;;;;;1.02;0.75;;;;;;;;;;5019952;28;20083;-79
2022/12/29 09:28:36;;;;;;;1.25;0.70;;;;;;;;;;5023373;28;20036;-79
2022/12/29 09:31:03;;;;;;;1.15;0.88;;;;;;;;;;5024533;28;20531;-79
2022/12/29 09:33:29;;;;;;;0.95;0.70;;;;;;;;;;5026460;28;20053;-81
2022/12/29 09:35:59;;;;;;;0.45;0.45;;;;;;;;;;5023629;28;20040;-80
2022/12/29 09:38:25;;;;;;;0.70;0.70;;;;;;;;;;5026677;28;21909;-75
2022/12/29 09:40:55;;;;;;;3.55;0.80;;;;;;;;;;5032165;28;20059;-76
2022/12/29 09:43:38;;;;;;;1.02;0.85;;;;;;;;;;5018221;28;20032;-76
2022/12/29 09:46:19;;;;;;;0.60;0.60;;;;;;;;;;5019593;28;20480;-76
2022/12/29 09:48:48;;;;;;;1.60;0.70;;;;;;;;;;5022491;28;20101;-76
2022/12/29 09:51:15;;;;;;;0.70;0.68;;;;;;;;;;5030674;28;20942;-77
2022/12/29 09:53:46;;;;;;;0.93;0.90;;;;;;;;;;5028251;28;20037;-76
2022/12/29 09:56:22;;;;;;;0.95;0.70;;;;;;;;;;5030872;28;20033;-76
2022/12/29 09:58:52;;;;;;;0.95;0.75;;;;;;;;;;5027214;28;20030;-76
2022/12/29 10:01:31;;;;;;;0.80;0.80;;;;;;;;;;5026648;28;20033;-76
2022/12/29 10:03:58;;;;;;;0.98;0.70;;;;;;;;;;5024317;28;20508;-77
2022/12/29 10:06:32;;;;;;;2.28;1.05;;;;;;;;;;5028383;28;20040;-76
2022/12/29 10:09:11;;;;;;;1.42;0.80;;;;;;;;;;5030303;28;20037;-78
2022/12/29 10:11:56;;;;;;;2.03;0.80;;;;;;;;;;5031330;28;20025;-77
2022/12/29 10:14:41;;;;;;;0.90;0.70;;;;;;;;;;5030271;28;20099;-78
2022/12/29 10:17:26;;;;;;;1.08;0.82;;;;;;;;;;5029677;28;20032;-77
2022/12/29 10:20:00;;;;;;;1.10;0.80;;;;;;;;;;5029435;28;20108;-78
2022/12/29 10:22:37;;;;;;;0.85;0.60;;;;;;;;;;5027471;28;20051;-78
2022/12/29 10:25:11;;;;;;;0.95;0.75;;;;;;;;;;5031367;28;20374;-78
2022/12/29 10:27:37;;;;;;;2.50;1.02;;;;;;;;;;5036192;28;20040;-78
2022/12/29 10:30:04;;;;;;;2.63;0.60;;;;;;;;;;5031685;28;20036;-78
2022/12/29 10:32:38;;;;;;;0.75;0.70;;;;;;;;;;5029200;28;20030;-78
2022/12/29 10:35:16;;;;;;;2.60;0.90;;;;;;;;;;5030124;28;20091;-78
2022/12/29 10:37:46;;;;;;;1.30;0.77;;;;;;;;;;5030465;28;20037;-78
2022/12/29 10:40:22;;;;;;;1.10;0.82;;;;;;;;;;5039902;28;20050;-78
2022/12/29 10:42:52;;;;;;;1.50;1.27;;;;;;;;;;5038462;28;20052;-78
2022/12/29 10:45:19;;;;;;;3.10;0.80;;;;;;;;;;5029281;28;20035;-78
2022/12/29 10:48:06;;;;;;;1.67;1.00;;;;;;;;;;5031122;28;20500;-78
2022/12/29 10:50:32;;;;;;;2.45;1.10;;;;;;;;;;5023951;28;20017;-79
2022/12/29 10:53:00;;;;;;;2.00;1.02;;;;;;;;;;5028834;28;20025;-79
2022/12/29 10:55:28;;;;;;;3.15;1.05;;;;;;;;;;5033563;28;20480;-78
2022/12/29 10:57:54;;;;;;;3.67;1.50;;;;;;;;;;5029372;28;20483;-78
2022/12/29 11:00:21;;;;;;;1.83;1.00;;;;;;;;;;5031198;28;20495;-78
2022/12/29 11:02:59;;;;;;;2.20;1.00;;;;;;;;;;5028861;28;20565;-79
2022/12/29 11:05:28;;;;;;;2.25;0.98;;;;;;;;;;5029513;28;20033;-78
2022/12/29 11:08:00;;;;;;;1.67;0.82;;;;;;;;;;5032031;28;20056;-79
2022/12/29 11:10:25;;;;;;;2.15;0.90;;;;;;;;;;5027935;28;20120;-78
2022/12/29 11:12:59;;;;;;;1.13;1.00;;;;;;;;;;5031189;28;20104;-78
2022/12/29 11:15:25;;;;;;;2.75;1.10;;;;;;;;;;5018030;28;20080;-76
2022/12/29 11:17:57;;;;;;;1.75;0.93;;;;;;;;;;5031488;28;20419;-78
2022/12/29 11:20:29;;;;;;;2.88;1.10;;;;;;;;;;5033133;28;20500;-75
2022/12/29 11:22:55;;;;;;;1.60;1.17;;;;;;;;;;5025732;28;20100;-78
2022/12/29 11:25:21;;;;;;;2.15;1.05;;;;;;;;;;5027154;28;20514;-77
2022/12/29 11:28:01;;;;;;;2.25;1.00;;;;;;;;;;5028216;28;20021;-77
2022/12/29 11:30:28;;;;;;;3.92;1.38;;;;;;;;;;5030707;28;20129;-77
2022/12/29 11:32:55;;;;;;;1.67;1.13;;;;;;;;;;5028447;28;20065;-77
2022/12/29 11:35:35;;;;;;;2.42;1.15;;;;;;;;;;5028716;28;20032;-76
2022/12/29 11:38:02;;;;;;;3.45;0.85;;;;;;;;;;5037818;28;20063;-78
2022/12/29 11:40:28;;;;;;;3.10;1.15;;;;;;;;;;5022049;28;20303;-77
2022/12/29 11:42:55;;;;;;;1.90;1.10;;;;;;;;;;5031547;28;20033;-77
2022/12/29 11:45:32;;;;;;;0.80;0.75;;;;;;;;;;5030110;28;20485;-76
2022/12/29 11:48:08;;;;;;;3.47;1.50;;;;;;;;;;5027596;28;20109;-76
2022/12/29 11:50:35;;;;;;;1.42;0.85;;;;;;;;;;5030543;28;20025;-77
2022/12/29 11:53:04;;;;;;;1.30;1.02;;;;;;;;;;5027187;28;20027;-76
2022/12/29 11:55:31;;;;;;;0.80;0.80;;;;;;;;;;5025606;28;20037;-77
2022/12/29 11:57:58;;;;;;;0.95;0.80;;;;;;;;;;5028393;28;20107;-76
2022/12/29 12:00:26;;;;;;;1.58;0.95;;;;;;;;;;5029275;28;20124;-77
2022/12/29 12:02:59;;;;;;;0.95;0.77;;;;;;;;;;5030270;28;20046;-77
2022/12/29 12:05:28;;;;;;;1.77;1.00;;;;;;;;;;5029107;28;20028;-77
2022/12/29 12:08:02;;;;;;;3.33;0.80;;;;;;;;;;5029712;28;20033;-77
2022/12/29 12:10:38;;;;;;;1.73;0.80;;;;;;;;;;5029495;28;20065;-77
2022/12/29 12:13:23;;;;;;;1.20;0.63;;;;;;;;;;5030714;28;20033;-77
2022/12/29 12:15:59;;;;;;;1.73;1.00;;;;;;;;;;5027623;28;20100;-76
2022/12/29 12:18:34;;;;;;;0.98;0.80;;;;;;;;;;5028769;28;20656;-76
2022/12/29 12:21:06;;;;;;;5.07;1.05;;;;;;;;;;5028158;28;20022;-76
2022/12/29 12:23:52;;;;;;;1.20;0.65;;;;;;;;;;5030629;28;20029;-75
2022/12/29 12:26:21;;;;;;;1.92;0.98;;;;;;;;;;5027588;28;20087;-78
2022/12/29 12:29:06;;;;;;;1.40;0.80;;;;;;;;;;5025611;28;20049;-77
2022/12/29 12:31:53;;;;;;;2.17;0.80;;;;;;;;;;5026669;28;20086;-78
2022/12/29 12:34:39;;;;;;;2.40;1.00;;;;;;;;;;5027404;28;20034;-77
2022/12/29 12:37:24;;;;;;;1.10;0.80;;;;;;;;;;5024768;28;20026;-77
2022/12/29 12:40:02;;;;;;;1.20;0.60;;;;;;;;;;5028758;28;20021;-78
2022/12/29 12:42:43;;;;;;;1.00;0.80;;;;;;;;;;5039292;28;20033;-78
2022/12/29 12:45:15;;;;;;;3.40;1.13;;;;;;;;;;5029123;28;20483;-78
2022/12/29 12:47:53;;;;;;;2.38;0.80;;;;;;;;;;5036767;28;20112;-78
2022/12/29 12:50:35;;;;;;;2.85;0.68;;;;;;;;;;5029448;28;20044;-78
2022/12/29 12:53:01;;;;;;;2.25;0.70;;;;;;;;;;5028643;28;20025;-78
2022/12/29 12:55:42;;;;;;;1.38;0.90;;;;;;;;;;5027227;28;20052;-79
2022/12/29 12:58:11;;;;;;;0.80;0.80;;;;;;;;;;5034669;28;20024;-79
2022/12/29 13:00:43;;;;;;;1.73;0.90;;;;;;;;;;5032133;28;20084;-79
2022/12/29 13:03:28;;;;;;;1.48;0.77;;;;;;;;;;5027451;28;20030;-78
2022/12/29 13:06:04;;;;;;;1.58;0.95;;;;;;;;;;5028189;28;20480;-78
2022/12/29 13:08:49;;;;;;;1.20;0.82;;;;;;;;;;5030980;28;20394;-81
2022/12/29 13:11:22;;;;;;;1.00;0.90;;;;;;;;;;5025140;28;20021;-78
2022/12/29 13:14:07;;;;;;;1.73;0.93;;;;;;;;;;5027296;28;20037;-80
2022/12/29 13:16:37;;;;;;;3.15;0.73;;;;;;;;;;5027261;28;20124;-80
2022/12/29 13:19:07;;;;;;;1.40;0.90;;;;;;;;;;5033940;28;20051;-80
2022/12/29 13:21:36;;;;;;;1.67;0.70;;;;;;;;;;5033965;28;20224;-80
2022/12/29 13:24:11;;;;;;;1.35;0.70;;;;;;;;;;5028341;28;20086;-78
2022/12/29 13:26:42;;;;;;;1.85;0.85;;;;;;;;;;5028255;28;20021;-80
2022/12/29 13:29:16;;;;;;;1.50;0.85;;;;;;;;;;5030926;28;20075;-81
2022/12/29 13:31:54;;;;;;;1.67;0.88;;;;;;;;;;5030115;28;20060;-79
2022/12/29 13:34:42;;;;;;;0.93;0.57;;;;;;;;;;5020381;28;20606;-80
2022/12/29 13:37:11;;;;;;;0.88;0.70;;;;;;;;;;5028820;28;20033;-81
2022/12/29 13:39:49;;;;;;;1.17;0.70;;;;;;;;;;5028530;28;20495;-80
2022/12/29 13:42:17;;;;;;;1.30;0.80;;;;;;;;;;5030476;28;20663;-80
2022/12/29 13:44:46;;;;;;;1.38;0.70;;;;;;;;;;5028547;28;20029;-81
2022/12/29 13:47:17;;;;;;;2.10;0.70;;;;;;;;;;5037551;28;20013;-81
2022/12/29 13:49:43;;;;;;;1.55;0.85;;;;;;;;;;5038518;28;20113;-81
2022/12/29 13:52:16;;;;;;;0.80;0.70;;;;;;;;;;5028428;28;20032;-81
2022/12/29 13:54:46;;;;;;;1.58;0.85;;;;;;;;;;5028330;28;20545;-81
2022/12/29 13:57:15;;;;;;;1.15;0.70;;;;;;;;;;5027836;28;20714;-81
2022/12/29 13:59:49;;;;;;;0.77;0.65;;;;;;;;;;5031402;28;20422;-80
2022/12/29 14:02:19;;;;;;;1.00;0.60;;;;;;;;;;5030608;28;20028;-80
2022/12/29 14:05:03;;;;;;;1.05;0.95;;;;;;;;;;5037744;28;20094;-79
2022/12/29 14:07:30;;;;;;;0.77;0.63;;;;;;;;;;5027415;28;20022;-80
2022/12/29 14:09:56;;;;;;;1.75;0.70;;;;;;;;;;5035055;28;20553;-80
2022/12/29 14:12:37;;;;;;;2.45;0.95;;;;;;;;;;5028417;28;20083;-80
2022/12/29 14:15:24;;;;;;;1.65;0.70;;;;;;;;;;5028401;28;20172;-80
2022/12/29 14:18:05;;;;;;;0.50;0.43;;;;;;;;;;5027918;28;20052;-80
2022/12/29 14:20:31;;;;;;;1.88;0.70;;;;;;;;;;5030904;28;20840;-80
2022/12/29 14:23:09;;;;;;;0.98;0.75;;;;;;;;;;5027161;28;20041;-80
2022/12/29 14:25:54;;;;;;;0.88;0.57;;;;;;;;;;5027660;28;20369;-80
2022/12/29 14:28:30;;;;;;;1.17;0.60;;;;;;;;;;5028175;28;20033;-81
2022/12/29 14:30:58;;;;;;;2.40;0.60;;;;;;;;;;5033769;28;20112;-78
2022/12/29 14:33:26;;;;;;;0.77;0.63;;;;;;;;;;5037385;28;20053;-79
2022/12/29 14:35:52;;;;;;;0.70;0.60;;;;;;;;;;5027986;28;20100;-79
2022/12/29 14:38:20;;;;;;;2.13;0.70;;;;;;;;;;5030094;28;20432;-79
2022/12/29 14:40:46;;;;;;;1.13;0.60;;;;;;;;;;5031326;28;20025;-79
2022/12/29 14:43:14;;;;;;;1.17;0.70;;;;;;;;;;5035282;28;20029;-79
2022/12/29 14:45:42;;;;;;;1.48;0.73;;;;;;;;;;5031551;28;20108;-80
2022/12/29 14:48:22;;;;;;;0.93;0.55;;;;;;;;;;5028489;28;20033;-80
2022/12/29 14:50:48;;;;;;;2.80;0.70;;;;;;;;;;5029630;28;20032;-79
2022/12/29 14:53:46;;;;;;;0.55;0.50;;;;;;;;;;5023033;28;20033;-77
2022/12/29 14:56:13;;;;;;;2.22;0.57;;;;;;;;;;5020715;28;20045;-77
2022/12/29 14:58:48;;;;;;;0.63;0.63;;;;;;;;;;5031956;28;20067;-77
2022/12/29 15:01:17;;;;;;;1.80;0.63;;;;;;;;;;5029148;28;20537;-81
2022/12/29 15:03:51;;;;;;;1.50;0.90;;;;;;;;;;5025891;28;20033;-76
2022/12/29 15:06:21;;;;;;;0.95;0.68;;;;;;;;;;5027435;28;20619;-83
2022/12/29 15:08:52;;;;;;;1.10;0.55;;;;;;;;;;5031032;28;20463;-78
2022/12/29 15:11:20;;;;;;;0.50;0.50;;;;;;;;;;5027096;28;20108;-84
2022/12/29 15:13:48;;;;;;;2.15;0.70;;;;;;;;;;5022517;28;20052;-77
2022/12/29 15:16:41;;;;;;;0.50;0.50;;;;;;;;;;5026731;28;20132;-76
2022/12/29 15:19:21;;;;;;;1.13;0.63;;;;;;;;;;5021767;28;20048;-78
2022/12/29 15:21:47;;;;;;;1.50;0.82;;;;;;;;;;5027900;28;20025;-77
2022/12/29 15:24:14;;;;;;;1.42;0.75;;;;;;;;;;5034457;28;20071;-77
2022/12/29 15:26:41;;;;;;;0.70;0.68;;;;;;;;;;5027580;28;20025;-77
2022/12/29 15:29:26;;;;;;;0.68;0.50;;;;;;;;;;5023556;28;20040;-75
2022/12/29 15:31:52;;;;;;;1.13;0.60;;;;;;;;;;5021373;28;20013;-75
2022/12/29 15:34:21;;;;;;;1.80;0.73;;;;;;;;;;5029131;28;20025;-75
2022/12/29 15:36:50;;;;;;;2.95;0.70;;;;;;;;;;5031156;28;20029;-75
2022/12/29 15:39:42;;;;;;;1.95;0.68;;;;;;;;;;5029793;28;20029;-76